Time;durP1;ratioP1;P1;durP2;ratioP2;P2;SDS_P1;SDS_P2;PMS_P1;PMS_P2;Temp;Humidity;BMP_temperature;BMP_pressure;BME280_temperature;BME280_humidity;BME280_pressure;Samples;Min_cycle;Max_cycle;Signal;HPM_P1;HPM_P2
2021/03/20 00:01:54;;;;;;;2.10;0.70;;;;;;;-0.44;43.43;103049.75;5005170;28;20503;-74
2021/03/20 00:04:20;;;;;;;4.45;0.82;;;;;;;-0.50;43.54;103055.53;5012241;28;20029;-75
2021/03/20 00:06:50;;;;;;;2.42;0.60;;;;;;;-0.53;43.82;103046.81;5027902;28;20060;-75
2021/03/20 00:09:19;;;;;;;3.90;0.90;;;;;;;-0.49;43.98;103053.84;5024699;28;20036;-73
2021/03/20 00:11:47;;;;;;;4.25;1.38;;;;;;;-0.44;43.94;103047.19;4997970;28;20033;-75
2021/03/20 00:14:16;;;;;;;1.38;0.47;;;;;;;-0.36;43.69;103045.81;5027199;28;20032;-74
2021/03/20 00:16:41;;;;;;;2.97;1.13;;;;;;;-0.37;43.63;103047.53;5010239;28;20064;-74
2021/03/20 00:19:07;;;;;;;2.55;0.82;;;;;;;-0.26;43.61;103050.53;5008059;28;20423;-73
2021/03/20 00:21:33;;;;;;;2.22;0.90;;;;;;;-0.11;43.74;103046.78;5031373;28;20058;-74
2021/03/20 00:23:58;;;;;;;3.25;1.15;;;;;;;0.02;43.14;103036.19;5025234;28;20068;-74
2021/03/20 00:26:24;;;;;;;2.08;1.20;;;;;;;0.13;42.84;103044.31;5025590;28;20061;-73
2021/03/20 00:28:51;;;;;;;2.15;0.95;;;;;;;0.11;43.03;103039.09;5023810;28;20037;-74
2021/03/20 00:31:17;;;;;;;2.92;1.13;;;;;;;0.14;42.98;103038.34;5009222;28;20519;-73
2021/03/20 00:33:44;;;;;;;3.15;0.63;;;;;;;0.25;42.75;103026.75;5004049;28;20022;-74
2021/03/20 00:36:14;;;;;;;6.22;1.05;;;;;;;0.33;42.68;103035.63;5027216;28;20495;-73
2021/03/20 00:38:40;;;;;;;4.00;1.38;;;;;;;0.34;42.30;103032.22;5025741;28;20652;-73
2021/03/20 00:41:07;;;;;;;4.35;1.33;;;;;;;0.20;42.78;103030.84;5023907;28;20044;-73
2021/03/20 00:43:33;;;;;;;4.20;1.33;;;;;;;0.14;42.84;103028.91;5009576;28;20029;-75
2021/03/20 00:45:59;;;;;;;4.40;1.80;;;;;;;-0.12;43.55;103020.22;5008488;28;20030;-70
2021/03/20 00:48:30;;;;;;;2.65;1.08;;;;;;;-0.26;43.96;103027.41;5025112;28;20044;-70
2021/03/20 00:50:56;;;;;;;6.27;1.70;;;;;;;-0.31;44.47;103030.59;5021193;28;20124;-70
2021/03/20 00:53:23;;;;;;;5.43;2.40;;;;;;;-0.22;44.26;103030.94;5023233;28;20280;-70
2021/03/20 00:55:49;;;;;;;7.47;1.50;;;;;;;-0.14;44.07;103033.00;5021832;28;20119;-71
2021/03/20 00:58:20;;;;;;;4.18;1.40;;;;;;;-0.21;44.02;103030.16;5025023;28;20061;-72
2021/03/20 01:00:46;;;;;;;2.93;1.27;;;;;;;-0.33;43.95;103040.78;5021198;28;20087;-71
2021/03/20 01:03:12;;;;;;;2.47;1.35;;;;;;;-0.44;44.49;103039.47;5024902;28;20308;-69
2021/03/20 01:05:37;;;;;;;7.72;1.77;;;;;;;-0.48;44.62;103042.75;5009748;28;20050;-73
2021/03/20 01:08:03;;;;;;;3.00;1.00;;;;;;;-0.62;44.69;103044.75;5031236;28;20044;-74
2021/03/20 01:10:29;;;;;;;6.78;1.25;;;;;;;-0.81;45.20;103036.28;5010001;28;20037;-73
2021/03/20 01:12:54;;;;;;;3.80;1.30;;;;;;;-1.02;45.79;103037.94;5003187;28;20033;-73
2021/03/20 01:15:20;;;;;;;1.98;1.52;;;;;;;-1.05;45.97;103041.25;5010590;28;20021;-73
2021/03/20 01:17:45;;;;;;;2.63;0.98;;;;;;;-1.15;46.11;103039.09;5025673;28;20034;-73
2021/03/20 01:20:12;;;;;;;5.30;1.35;;;;;;;-1.31;46.58;103031.50;5007195;28;20033;-73
2021/03/20 01:22:37;;;;;;;5.78;1.45;;;;;;;-1.35;46.65;103039.88;5008124;28;20044;-73
2021/03/20 01:25:04;;;;;;;6.30;1.50;;;;;;;-1.46;46.92;103042.84;5007234;28;20022;-70
2021/03/20 01:27:30;;;;;;;2.65;1.20;;;;;;;-1.54;47.31;103028.78;5022322;28;20045;-71
2021/03/20 01:29:56;;;;;;;4.47;1.40;;;;;;;-1.54;47.30;103023.66;5001031;28;20503;-70
2021/03/20 01:32:22;;;;;;;3.17;1.38;;;;;;;-1.47;47.45;103019.69;5024037;28;20522;-70
2021/03/20 01:34:47;;;;;;;9.07;1.67;;;;;;;-1.39;47.21;103013.22;5003297;28;20040;-70
2021/03/20 01:37:13;;;;;;;3.00;1.65;;;;;;;-1.50;47.36;103015.31;5020996;28;20037;-70
2021/03/20 01:39:38;;;;;;;5.57;1.42;;;;;;;-1.61;47.30;103011.38;5000048;28;20030;-72
2021/03/20 01:42:06;;;;;;;3.75;2.08;;;;;;;-1.53;47.31;103006.59;5024887;28;20043;-72
2021/03/20 01:44:32;;;;;;;3.95;1.85;;;;;;;-1.41;47.32;103000.31;5005039;28;20037;-71
2021/03/20 01:46:59;;;;;;;5.03;2.10;;;;;;;-1.29;47.00;102996.53;5006763;28;20095;-72
2021/03/20 01:49:31;;;;;;;3.75;1.67;;;;;;;-1.31;46.78;102998.16;5024752;28;20455;-73
2021/03/20 01:52:12;;;;;;;4.68;1.98;;;;;;;-1.34;46.97;102998.03;5000242;28;20376;-73
2021/03/20 01:55:01;;;;;;;2.30;1.23;;;;;;;-1.51;47.35;102995.63;4992808;28;20030;-72
2021/03/20 01:57:35;;;;;;;7.47;1.95;;;;;;;-1.42;47.19;102996.00;5025200;28;20527;-73
2021/03/20 02:00:11;;;;;;;4.65;1.25;;;;;;;-1.24;46.64;103002.72;5009160;28;20071;-71
2021/03/20 02:02:38;;;;;;;2.35;1.25;;;;;;;-1.17;46.39;103007.34;5004803;28;20471;-73
2021/03/20 02:05:05;;;;;;;4.22;1.33;;;;;;;-1.27;46.60;102995.78;5026102;28;20040;-72
2021/03/20 02:07:31;;;;;;;5.35;1.80;;;;;;;-1.27;46.19;103003.47;5022510;28;20381;-72
2021/03/20 02:09:56;;;;;;;4.28;1.50;;;;;;;-1.19;46.31;102996.13;5025642;28;20152;-72
2021/03/20 02:12:29;;;;;;;4.40;1.30;;;;;;;-1.41;46.30;102996.88;5023625;28;20152;-71
2021/03/20 02:15:31;;;;;;;3.20;1.45;;;;;;;-1.58;46.29;102991.00;5019367;28;20057;-71
2021/03/20 02:18:03;;;;;;;;;;;;;;;-1.69;46.30;102998.19;5026315;28;20598;-71
2021/03/20 02:20:44;;;;;;;2.90;0.97;;;;;;;-1.60;46.19;103002.88;5021028;28;19956;-71
2021/03/20 02:23:09;;;;;;;4.40;0.95;;;;;;;-1.53;45.59;102994.66;5023710;28;20378;-72
2021/03/20 02:26:26;;;;;;;5.05;1.20;;;;;;;-1.68;45.11;102993.97;5023061;28;20084;-71
2021/03/20 02:28:58;;;;;;;2.38;1.15;;;;;;;-1.75;45.26;102999.66;5006962;28;20061;-72
2021/03/20 02:32:01;;;;;;;5.93;1.27;;;;;;;-1.84;45.49;102997.53;5022470;28;20034;-71
2021/03/20 02:34:36;;;;;;;4.45;1.10;;;;;;;-1.93;45.67;103003.13;5022219;28;20046;-66
2021/03/20 02:37:20;;;;;;;3.17;0.88;;;;;;;-1.85;45.46;103003.44;5023370;28;20044;-68
2021/03/20 02:39:50;;;;;;;2.22;1.25;;;;;;;-1.85;45.49;103006.88;5021377;28;20047;-68
2021/03/20 02:43:00;;;;;;;4.20;1.40;;;;;;;-1.88;45.58;103001.63;4989425;28;20520;-68
2021/03/20 02:45:42;;;;;;;2.22;0.73;;;;;;;-2.06;45.68;103006.78;4992061;28;20225;-68
2021/03/20 02:48:20;;;;;;;2.88;0.93;;;;;;;-2.09;46.07;103009.22;5020875;28;20060;-69
2021/03/20 02:50:51;;;;;;;2.63;1.08;;;;;;;-2.05;46.14;103012.78;5022373;28;20044;-71
2021/03/20 02:53:26;;;;;;;5.35;0.85;;;;;;;-1.97;45.97;103006.34;5020242;28;20460;-74
2021/03/20 02:55:56;;;;;;;3.05;1.48;;;;;;;-1.80;45.54;102999.41;5001429;28;20125;-71
2021/03/20 02:58:29;;;;;;;2.35;0.75;;;;;;;-1.49;45.08;103011.91;5018314;28;20033;-70
2021/03/20 03:00:59;;;;;;;4.28;1.15;;;;;;;-1.21;44.47;103008.88;5023022;28;20066;-71
2021/03/20 03:03:31;;;;;;;3.50;1.48;;;;;;;-1.20;44.49;103002.06;5016021;28;20422;-70
2021/03/20 03:06:02;;;;;;;2.80;1.42;;;;;;;-1.12;44.38;103003.28;4990634;28;20093;-70
2021/03/20 03:08:34;;;;;;;2.60;1.25;;;;;;;-1.09;44.06;102993.13;5015411;28;20407;-70
2021/03/20 03:11:29;;;;;;;1.38;0.80;;;;;;;-1.11;44.24;102993.88;5024730;28;20083;-69
2021/03/20 03:14:01;;;;;;;6.78;3.10;;;;;;;-1.14;44.41;102984.38;5019710;28;20045;-71
2021/03/20 03:16:33;;;;;;;18.92;6.70;;;;;;;-0.98;44.35;102981.66;5020452;28;20547;-69
2021/03/20 03:19:05;;;;;;;8.30;4.05;;;;;;;-0.93;44.17;102984.41;5021749;28;20049;-69
2021/03/20 03:21:36;;;;;;;6.95;4.57;;;;;;;-1.13;43.73;102975.84;5021760;28;20068;-69
2021/03/20 03:24:03;;;;;;;7.90;3.70;;;;;;;-1.14;44.35;102966.41;4998836;28;20038;-70
2021/03/20 03:26:35;;;;;;;6.68;3.17;;;;;;;-1.16;44.56;102965.44;5000489;28;20396;-70
2021/03/20 03:29:13;;;;;;;4.68;2.05;;;;;;;-1.45;44.94;102967.66;5000311;28;20578;-70
2021/03/20 03:31:46;;;;;;;4.80;2.40;;;;;;;-1.16;44.71;102965.44;5023482;28;20053;-69
2021/03/20 03:34:16;;;;;;;5.15;1.42;;;;;;;-1.18;44.70;102961.94;5031232;28;20099;-73
2021/03/20 03:37:01;;;;;;;2.00;1.25;;;;;;;-1.19;44.67;102949.94;5016354;28;20022;-73
2021/03/20 03:39:39;;;;;;;2.72;1.55;;;;;;;-1.23;44.60;102942.91;5012121;28;20049;-73
2021/03/20 03:42:05;;;;;;;7.25;1.63;;;;;;;-1.59;45.22;102940.53;5025418;28;20029;-74
2021/03/20 03:44:30;;;;;;;6.32;1.95;;;;;;;-1.44;45.52;102933.50;5025227;28;20036;-73
2021/03/20 03:46:57;;;;;;;3.72;1.88;;;;;;;-1.62;45.86;102946.41;5002721;28;20128;-74
2021/03/20 03:49:25;;;;;;;3.67;1.88;;;;;;;-2.77;48.29;102940.22;5028981;28;20049;-74
2021/03/20 03:51:51;;;;;;;7.38;2.65;;;;;;;-2.29;47.53;102941.69;5024972;28;20033;-73
2021/03/20 03:54:17;;;;;;;3.15;1.67;;;;;;;-1.86;46.68;102943.63;5000431;28;20133;-74
2021/03/20 03:56:42;;;;;;;5.10;1.20;;;;;;;-1.64;46.03;102935.19;5025006;28;20121;-75
2021/03/20 03:59:12;;;;;;;4.75;1.88;;;;;;;-1.73;45.91;102933.91;5021980;28;20033;-76
2021/03/20 04:02:10;;;;;;;3.30;1.52;;;;;;;-1.99;46.53;102941.31;5023752;28;20049;-75
2021/03/20 04:05:02;;;;;;;3.50;1.17;;;;;;;-1.94;46.33;102939.84;4985430;28;20041;-75
2021/03/20 04:07:39;;;;;;;6.60;1.98;;;;;;;-1.69;44.87;102935.78;5007089;28;20049;-75
2021/03/20 04:10:26;;;;;;;2.33;1.50;;;;;;;-1.60;44.69;102944.78;5028677;28;20040;-75
2021/03/20 04:13:13;;;;;;;6.45;2.10;;;;;;;-1.99;45.16;102946.44;5023673;28;20053;-76
2021/03/20 04:15:54;;;;;;;5.90;1.90;;;;;;;-1.73;45.07;102946.72;4991606;28;20052;-75
2021/03/20 04:18:19;;;;;;;3.35;1.10;;;;;;;-1.64;44.64;102934.34;5023427;28;20029;-74
2021/03/20 04:20:54;;;;;;;10.27;2.53;;;;;;;-1.54;43.96;102940.72;4988347;28;20979;-72
2021/03/20 04:23:28;;;;;;;2.72;1.27;;;;;;;-1.73;43.89;102944.16;5007494;28;20021;-68
2021/03/20 04:26:01;;;;;;;4.05;1.10;;;;;;;-1.87;44.61;102948.69;5024300;28;20055;-71
2021/03/20 04:28:36;;;;;;;3.33;1.42;;;;;;;-1.68;44.20;102943.56;5015010;28;20568;-67
2021/03/20 04:31:08;;;;;;;3.67;1.63;;;;;;;-1.51;43.64;102943.41;5017692;28;20041;-71
2021/03/20 04:33:46;;;;;;;5.65;1.02;;;;;;;-1.60;43.89;102946.44;5014776;28;20507;-73
2021/03/20 04:36:20;;;;;;;6.75;1.40;;;;;;;-1.82;43.70;102945.53;5004638;28;20070;-72
2021/03/20 04:38:46;;;;;;;5.28;1.25;;;;;;;-1.76;43.83;102944.03;4989032;28;20042;-71
2021/03/20 04:41:13;;;;;;;8.48;1.10;;;;;;;-2.10;44.74;102942.53;5021761;28;20483;-72
2021/03/20 04:43:40;;;;;;;5.80;2.03;;;;;;;-1.65;43.84;102940.25;4998037;28;20097;-73
2021/03/20 04:46:14;;;;;;;7.35;1.77;;;;;;;-1.52;43.91;102946.81;5018856;28;20043;-75
2021/03/20 04:48:44;;;;;;;4.78;1.63;;;;;;;-1.50;43.65;102943.50;5021051;28;20092;-73
2021/03/20 04:51:24;;;;;;;3.72;1.02;;;;;;;-1.59;43.77;102937.97;5020236;28;20029;-73
2021/03/20 04:54:03;;;;;;;3.03;1.48;;;;;;;-1.62;43.59;102935.25;4985512;28;20044;-73
2021/03/20 04:56:36;;;;;;;5.70;1.27;;;;;;;-1.67;43.72;102929.06;5001766;28;20034;-72
2021/03/20 04:59:07;;;;;;;3.47;1.35;;;;;;;-1.83;43.86;102927.50;4999985;28;20038;-72
2021/03/20 05:01:46;;;;;;;2.47;1.20;;;;;;;-2.08;44.45;102934.09;5016426;28;20033;-72
2021/03/20 05:04:36;;;;;;;2.85;1.40;;;;;;;-1.98;43.96;102935.38;5016027;28;20328;-71
2021/03/20 05:07:03;;;;;;;3.28;1.45;;;;;;;-2.05;44.22;102935.91;5013731;28;20035;-72
2021/03/20 05:09:30;;;;;;;8.43;1.80;;;;;;;-1.64;43.65;102926.63;5000789;28;20491;-72
2021/03/20 05:12:16;;;;;;;4.75;1.50;;;;;;;-1.72;43.72;102925.41;4998084;28;20053;-72
2021/03/20 05:14:52;;;;;;;4.65;1.42;;;;;;;-1.77;43.68;102924.34;5017382;28;20048;-72
2021/03/20 05:17:20;;;;;;;4.97;1.15;;;;;;;-1.68;43.28;102915.34;5007365;28;20040;-72
2021/03/20 05:19:46;;;;;;;3.38;0.98;;;;;;;-2.12;44.51;102915.94;4998694;28;20044;-73
2021/03/20 05:22:27;;;;;;;5.93;1.63;;;;;;;-1.73;44.16;102910.81;5011254;28;20086;-71
2021/03/20 05:24:54;;;;;;;2.58;1.33;;;;;;;-1.87;44.08;102912.78;4998712;28;20622;-67
2021/03/20 05:27:24;;;;;;;4.18;1.60;;;;;;;-1.53;43.51;102910.03;5001585;28;20035;-67
2021/03/20 05:29:50;;;;;;;4.78;1.92;;;;;;;-1.87;44.70;102910.22;5001459;28;20514;-66
2021/03/20 05:32:22;;;;;;;3.83;1.35;;;;;;;-1.49;44.10;102911.88;5002598;28;20030;-67
2021/03/20 05:34:48;;;;;;;7.25;2.25;;;;;;;-1.64;43.97;102906.13;5017766;28;20021;-66
2021/03/20 05:37:26;;;;;;;3.78;1.42;;;;;;;-1.97;45.00;102903.81;5017288;28;20591;-67
2021/03/20 05:39:52;;;;;;;2.90;1.40;;;;;;;-1.61;44.55;102901.13;5015452;28;20133;-66
2021/03/20 05:42:31;;;;;;;2.85;1.38;;;;;;;-1.95;45.11;102902.22;5002943;28;20049;-68
2021/03/20 05:45:32;;;;;;;4.30;1.48;;;;;;;-1.48;44.83;102898.28;5018362;28;20026;-71
2021/03/20 05:48:22;;;;;;;2.60;1.38;;;;;;;-1.92;45.63;102899.78;4978814;28;20045;-73
2021/03/20 05:51:12;;;;;;;4.65;1.88;;;;;;;-1.65;45.27;102907.78;5002231;28;20032;-71
2021/03/20 05:54:15;;;;;;;2.38;1.30;;;;;;;-1.47;45.11;102904.28;5002034;28;20037;-70
2021/03/20 05:56:46;;;;;;;;;;;;;;;-1.08;44.63;102907.63;5016955;28;20042;-69
2021/03/20 05:59:32;;;;;;;3.20;1.80;;;;;;;-0.82;44.06;102918.09;5019903;28;19951;-70
2021/03/20 06:02:13;;;;;;;4.18;1.98;;;;;;;-1.12;44.46;102916.00;4997104;28;20033;-70
2021/03/20 06:04:42;;;;;;;6.53;2.40;;;;;;;-0.99;44.38;102914.88;5021498;28;20423;-73
2021/03/20 06:07:29;;;;;;;10.70;2.83;;;;;;;-1.46;44.77;102911.16;5019402;28;20064;-73
2021/03/20 06:10:15;;;;;;;4.38;2.22;;;;;;;-1.58;45.55;102916.63;5019262;28;20033;-70
2021/03/20 06:12:58;;;;;;;7.90;1.35;;;;;;;-1.34;45.27;102918.50;5018857;28;20156;-69
2021/03/20 06:16:01;;;;;;;5.45;1.92;;;;;;;-1.30;45.28;102920.38;5022001;28;20041;-74
2021/03/20 06:19:04;;;;;;;5.40;2.03;;;;;;;-1.02;44.83;102913.06;5022121;28;20120;-73
2021/03/20 06:21:47;;;;;;;3.28;1.50;;;;;;;-1.63;45.76;102918.13;5021505;28;20114;-71
2021/03/20 06:24:48;;;;;;;4.00;1.70;;;;;;;-1.57;45.67;102920.97;5003459;28;20037;-71
2021/03/20 06:27:21;;;;;;;3.92;2.50;;;;;;;-1.06;44.93;102906.03;4967622;28;20046;-71
2021/03/20 06:29:58;;;;;;;6.55;2.35;;;;;;;-1.05;44.81;102910.34;5019206;28;20029;-72
2021/03/20 06:32:30;;;;;;;5.13;1.80;;;;;;;-0.95;44.77;102906.47;4991227;28;20033;-72
2021/03/20 06:35:26;;;;;;;4.47;2.33;;;;;;;-1.00;45.22;102898.56;5017516;28;20030;-72
2021/03/20 06:37:57;;;;;;;9.38;3.35;;;;;;;-0.42;44.42;102901.69;5000749;28;20169;-70
2021/03/20 06:40:29;;;;;;;4.43;2.70;;;;;;;-0.59;43.36;102909.63;4996246;28;20029;-72
2021/03/20 06:42:57;;;;;;;6.28;2.47;;;;;;;-0.28;43.70;102903.09;5014258;28;20291;-68
2021/03/20 06:45:29;;;;;;;5.15;2.47;;;;;;;-0.17;43.09;102909.53;5018041;28;20025;-69
2021/03/20 06:48:05;;;;;;;9.45;2.90;;;;;;;-0.03;43.02;102902.31;5045191;23;20033;-70
2021/03/20 06:50:42;;;;;;;4.40;2.10;;;;;;;-0.77;44.33;102914.06;5041867;28;20043;-69
2021/03/20 06:53:10;;;;;;;7.70;3.45;;;;;;;-0.38;43.72;102906.13;5041881;28;20041;-69
2021/03/20 06:55:40;;;;;;;5.10;2.97;;;;;;;-0.73;44.26;102908.19;5040626;28;20532;-69
2021/03/20 06:58:32;;;;;;;5.78;2.95;;;;;;;-0.60;44.44;102910.44;5040345;28;20041;-69
2021/03/20 07:01:01;;;;;;;3.65;2.72;;;;;;;-0.38;43.83;102903.56;5040545;28;20124;-70
2021/03/20 07:03:55;;;;;;;4.28;2.72;;;;;;;-0.55;43.68;102900.31;5033351;28;20064;-70
2021/03/20 07:06:33;;;;;;;5.22;2.78;;;;;;;0.35;42.57;102894.22;5041528;28;20047;-69
2021/03/20 07:09:01;;;;;;;5.75;2.95;;;;;;;0.43;42.27;102896.22;5039365;28;20073;-70
2021/03/20 07:11:37;;;;;;;3.70;2.42;;;;;;;0.63;41.75;102899.47;5040777;28;20401;-70
2021/03/20 07:14:34;;;;;;;4.40;2.38;;;;;;;0.82;41.47;102900.97;5041334;28;20036;-70
2021/03/20 07:17:02;;;;;;;6.63;2.67;;;;;;;0.38;42.70;102905.47;5029106;28;20048;-70
2021/03/20 07:19:27;;;;;;;11.52;2.72;;;;;;;0.35;42.87;102899.38;5044609;28;20121;-69
2021/03/20 07:21:56;;;;;;;5.35;2.72;;;;;;;0.42;42.36;102903.91;5030169;28;20041;-70
2021/03/20 07:24:33;;;;;;;5.00;2.70;;;;;;;0.85;41.17;102908.78;5046082;28;20040;-69
2021/03/20 07:27:04;;;;;;;4.65;2.85;;;;;;;0.62;41.79;102910.59;5040761;28;20641;-70
2021/03/20 07:29:44;;;;;;;6.47;2.95;;;;;;;1.29;41.41;102905.91;5039584;28;20040;-69
2021/03/20 07:32:30;;;;;;;6.07;2.05;;;;;;;1.16;41.45;102896.91;5046669;28;20036;-69
2021/03/20 07:35:11;;;;;;;4.15;2.33;;;;;;;1.52;40.13;102893.75;5056523;28;20033;-69
2021/03/20 07:37:37;;;;;;;3.15;1.95;;;;;;;1.78;39.61;102894.53;5044509;28;20057;-69
2021/03/20 07:40:11;;;;;;;4.30;2.58;;;;;;;1.20;39.85;102885.03;5041041;28;20041;-69
2021/03/20 07:42:40;;;;;;;4.25;2.38;;;;;;;0.95;40.71;102888.50;5055885;28;20040;-70
2021/03/20 07:45:29;;;;;;;5.82;2.50;;;;;;;1.25;41.66;102883.44;5054031;28;20057;-69
2021/03/20 07:47:55;;;;;;;6.10;2.40;;;;;;;1.97;39.56;102880.44;5038886;28;20064;-70
2021/03/20 07:50:32;;;;;;;7.35;3.30;;;;;;;2.19;39.17;102876.75;5040730;28;20084;-72
2021/03/20 07:53:19;;;;;;;5.10;2.22;;;;;;;2.14;39.89;102881.78;5041133;28;20507;-70
2021/03/20 07:56:15;;;;;;;7.35;2.28;;;;;;;2.26;39.38;102883.81;5037405;28;20033;-70
2021/03/20 07:58:49;;;;;;;4.90;2.45;;;;;;;1.25;40.69;102894.63;5040784;28;20045;-70
2021/03/20 08:01:20;;;;;;;3.67;1.98;;;;;;;1.46;41.81;102899.63;5040268;28;20524;-69
2021/03/20 08:03:53;;;;;;;6.45;1.95;;;;;;;1.83;40.98;102894.66;5041522;28;20516;-71
2021/03/20 08:06:26;;;;;;;4.22;2.42;;;;;;;1.72;40.73;102884.03;5056970;28;20126;-70
2021/03/20 08:09:17;;;;;;;6.97;2.42;;;;;;;2.21;39.38;102875.09;5041280;28;20105;-70
2021/03/20 08:11:44;;;;;;;6.65;2.80;;;;;;;2.04;40.13;102884.06;5043547;28;20033;-71
2021/03/20 08:14:24;;;;;;;3.65;2.40;;;;;;;1.43;41.45;102883.16;5041876;28;20516;-70
2021/03/20 08:16:51;;;;;;;9.85;3.53;;;;;;;2.09;40.91;102877.34;5053082;28;20051;-70
2021/03/20 08:19:18;;;;;;;7.57;3.70;;;;;;;3.13;38.80;102868.78;5045752;28;20040;-70
2021/03/20 08:22:25;;;;;;;5.00;2.63;;;;;;;2.42;38.98;102871.31;5038562;28;20041;-70
2021/03/20 08:25:02;;;;;;;4.75;2.90;;;;;;;2.43;39.45;102867.94;5023479;28;20033;-70
2021/03/20 08:27:50;;;;;;;8.07;3.42;;;;;;;2.51;40.20;102861.22;5026148;28;20056;-70
2021/03/20 08:30:37;;;;;;;8.07;3.92;;;;;;;2.84;39.00;102862.91;5040660;28;20178;-70
2021/03/20 08:33:17;;;;;;;8.05;3.80;;;;;;;2.80;39.37;102863.66;5043082;28;20048;-71
2021/03/20 08:36:05;;;;;;;7.00;3.58;;;;;;;3.79;38.19;102852.13;5038644;28;20041;-68
2021/03/20 08:39:08;;;;;;;8.55;4.05;;;;;;;3.71;37.36;102854.56;5042871;28;20041;-69
2021/03/20 08:41:55;;;;;;;8.77;4.03;;;;;;;2.94;39.32;102854.56;5041900;28;20043;-69
2021/03/20 08:44:56;;;;;;;11.57;3.67;;;;;;;2.95;38.56;102852.00;5048649;28;20032;-69
2021/03/20 08:47:57;;;;;;;5.32;3.30;;;;;;;4.16;37.48;102847.66;5038943;28;20565;-71
2021/03/20 08:50:50;;;;;;;7.32;3.08;;;;;;;4.29;37.94;102843.56;4978867;28;20066;-71
2021/03/20 08:53:37;;;;;;;5.10;2.83;;;;;;;3.25;38.79;102834.56;5042566;28;20065;-70
2021/03/20 08:56:28;;;;;;;6.70;3.42;;;;;;;5.87;35.16;102830.34;5042199;28;20117;-72
2021/03/20 08:59:25;;;;;;;3.63;2.38;;;;;;;6.34;34.19;102829.97;5043138;28;20037;-70
2021/03/20 09:01:58;;;;;;;5.70;2.40;;;;;;;7.05;33.00;102825.31;5041501;28;20094;-70
2021/03/20 09:04:42;;;;;;;6.50;2.85;;;;;;;6.33;33.39;102825.66;5039915;28;20036;-70
2021/03/20 09:07:20;;;;;;;5.85;2.60;;;;;;;6.12;34.21;102822.81;5033999;28;20045;-69
2021/03/20 09:09:51;;;;;;;5.80;2.47;;;;;;;5.87;34.94;102818.22;5042737;28;20126;-71
2021/03/20 09:12:31;;;;;;;6.65;2.40;;;;;;;6.08;33.72;102819.28;5043289;28;20147;-72
2021/03/20 09:14:57;;;;;;;8.75;2.45;;;;;;;6.00;35.48;102824.44;5023392;28;20034;-72
2021/03/20 09:17:32;;;;;;;3.97;2.33;;;;;;;4.96;36.88;102829.16;5042077;28;20052;-71
2021/03/20 09:20:23;;;;;;;7.07;2.92;;;;;;;5.69;35.44;102827.53;5042014;28;20170;-73
2021/03/20 09:22:50;;;;;;;7.60;1.98;;;;;;;4.66;37.06;102829.53;5038010;28;20036;-71
2021/03/20 09:25:33;;;;;;;5.85;1.80;;;;;;;4.74;37.80;102822.75;5040326;28;20028;-72
2021/03/20 09:28:15;;;;;;;4.28;2.58;;;;;;;4.13;38.81;102819.13;5041045;28;20029;-71
2021/03/20 09:30:41;;;;;;;5.95;1.95;;;;;;;4.43;39.12;102817.09;5039122;28;20045;-71
2021/03/20 09:33:32;;;;;;;3.50;1.55;;;;;;;4.72;38.19;102818.38;5044176;28;20029;-71
2021/03/20 09:36:29;;;;;;;3.00;2.05;;;;;;;4.27;39.45;102816.78;5044461;28;20038;-72
2021/03/20 09:38:59;;;;;;;7.22;2.03;;;;;;;5.24;37.85;102824.38;5038650;28;20064;-72
2021/03/20 09:41:27;;;;;;;8.57;2.15;;;;;;;4.73;39.04;102812.38;5043386;28;20061;-72
2021/03/20 09:43:59;;;;;;;4.25;2.17;;;;;;;4.97;39.15;102817.97;5019736;28;20096;-72
2021/03/20 09:46:40;;;;;;;3.30;1.98;;;;;;;4.75;39.87;102827.09;5040143;28;20027;-71
2021/03/20 09:49:11;;;;;;;6.82;2.30;;;;;;;4.97;39.11;102824.88;5039983;28;20041;-71
2021/03/20 09:51:57;;;;;;;5.50;2.07;;;;;;;5.79;38.30;102816.41;5043664;28;20064;-70
2021/03/20 09:54:23;;;;;;;7.50;2.42;;;;;;;6.22;36.63;102824.66;5037702;28;20053;-71
2021/03/20 09:56:54;;;;;;;2.50;1.75;;;;;;;6.21;36.24;102820.28;5039102;28;20506;-70
2021/03/20 09:59:35;;;;;;;5.07;2.72;;;;;;;5.67;38.37;102818.00;5037570;28;20039;-72
2021/03/20 10:02:10;;;;;;;8.18;2.33;;;;;;;5.56;38.29;102817.00;5037109;28;20045;-71
2021/03/20 10:04:54;;;;;;;4.20;1.25;;;;;;;6.55;37.73;102813.72;5020584;28;20035;-72
2021/03/20 10:07:20;;;;;;;3.78;2.25;;;;;;;7.01;37.72;102820.94;5024152;28;20033;-71
2021/03/20 10:10:01;;;;;;;4.70;1.95;;;;;;;5.21;39.61;102819.13;5018272;28;20506;-70
2021/03/20 10:12:42;;;;;;;5.07;1.95;;;;;;;6.30;37.61;102810.03;5039795;28;20064;-71
2021/03/20 10:15:14;;;;;;;1.90;1.40;;;;;;;5.78;39.06;102805.16;5041084;28;20087;-70
2021/03/20 10:17:59;;;;;;;;;;;;;;;5.54;40.22;102807.47;5041638;28;20064;-71
2021/03/20 10:20:36;;;;;;;3.38;2.25;;;;;;;5.79;39.35;102804.31;5043969;28;19923;-70
2021/03/20 10:23:13;;;;;;;3.30;1.48;;;;;;;5.98;39.06;102794.97;5041629;28;20060;-70
2021/03/20 10:25:45;;;;;;;4.70;1.70;;;;;;;5.39;40.66;102790.88;5041455;28;20104;-70
2021/03/20 10:28:11;;;;;;;;;;;;;;;5.27;40.67;102795.91;5042890;28;20105;-70
2021/03/20 10:30:37;;;;;;;3.17;1.80;;;;;;;5.54;40.37;102792.75;5045025;28;19935;-71
2021/03/20 10:33:14;;;;;;;2.55;2.30;;;;;;;5.10;41.21;102793.09;5042288;28;20082;-70
2021/03/20 10:35:40;;;;;;;3.33;2.17;;;;;;;4.86;42.78;102791.00;5024366;28;20037;-72
2021/03/20 10:38:28;;;;;;;8.07;2.58;;;;;;;5.03;41.61;102779.19;5047210;28;20037;-70
2021/03/20 10:41:04;;;;;;;3.60;2.95;;;;;;;3.92;44.40;102766.16;5043242;28;20128;-71
2021/03/20 10:43:46;;;;;;;4.88;2.35;;;;;;;5.10;42.47;102764.59;5042147;28;20064;-71
2021/03/20 10:46:25;;;;;;;7.13;2.95;;;;;;;5.45;41.34;102758.94;5040903;28;20282;-69
2021/03/20 10:48:54;;;;;;;5.15;2.70;;;;;;;5.32;41.48;102755.34;5045294;28;20037;-70
2021/03/20 10:51:22;;;;;;;4.38;2.85;;;;;;;5.74;40.97;102750.63;5028970;28;20036;-71
2021/03/20 10:53:52;;;;;;;9.88;2.75;;;;;;;5.86;40.83;102741.25;5046109;28;20040;-70
2021/03/20 10:56:34;;;;;;;3.17;2.53;;;;;;;5.23;42.38;102761.31;5040266;28;20029;-70
2021/03/20 10:59:10;;;;;;;3.90;2.65;;;;;;;5.52;41.36;102752.97;5046044;28;20298;-69
2021/03/20 11:01:36;;;;;;;4.30;2.33;;;;;;;5.70;41.62;102746.25;5040491;28;20036;-69
2021/03/20 11:04:05;;;;;;;7.95;3.67;;;;;;;5.86;41.32;102732.59;5044209;28;20029;-69
2021/03/20 11:06:31;;;;;;;4.03;2.85;;;;;;;5.79;41.61;102733.38;5040029;28;20082;-71
2021/03/20 11:09:07;;;;;;;4.65;2.40;;;;;;;5.79;42.18;102735.97;5048176;28;20041;-70
2021/03/20 11:11:36;;;;;;;7.50;2.72;;;;;;;4.93;42.62;102740.16;5040315;28;21093;-72
2021/03/20 11:14:06;;;;;;;7.07;3.25;;;;;;;5.34;41.65;102748.44;5040746;28;20053;-69
2021/03/20 11:16:33;;;;;;;2.55;1.77;;;;;;;5.23;42.28;102737.97;5044466;28;20159;-70
2021/03/20 11:19:34;;;;;;;8.30;2.67;;;;;;;5.25;42.34;102744.00;5049087;28;20072;-70
2021/03/20 11:22:15;;;;;;;4.40;2.53;;;;;;;5.74;40.88;102743.69;5042839;28;20044;-70
2021/03/20 11:24:40;;;;;;;4.47;2.20;;;;;;;5.53;41.51;102739.16;5042366;28;20537;-71
2021/03/20 11:27:18;;;;;;;2.75;1.65;;;;;;;5.32;42.54;102739.78;5044967;28;20792;-69
2021/03/20 11:30:21;;;;;;;3.88;2.33;;;;;;;5.41;42.22;102731.22;5041619;28;20122;-69
2021/03/20 11:32:49;;;;;;;3.20;1.88;;;;;;;5.62;42.19;102731.47;5008272;28;20048;-70
2021/03/20 11:35:31;;;;;;;3.38;1.85;;;;;;;5.51;42.12;102721.84;5028188;28;20029;-70
2021/03/20 11:38:01;;;;;;;6.65;2.55;;;;;;;5.24;43.58;102718.94;5045993;28;20254;-70
2021/03/20 11:40:36;;;;;;;8.27;3.15;;;;;;;5.66;42.72;102712.50;5044787;28;20044;-70
2021/03/20 11:43:06;;;;;;;3.72;2.25;;;;;;;5.59;43.11;102713.28;5044622;28;20590;-70
2021/03/20 11:45:38;;;;;;;12.10;2.78;;;;;;;5.64;42.96;102700.38;5042309;28;20061;-70
2021/03/20 11:48:12;;;;;;;;;;;;;;;5.54;43.15;102704.56;5042742;28;20041;-70
2021/03/20 11:50:39;;;;;;;5.25;2.47;;;;;;;4.95;44.50;102712.53;5044952;28;19940;-70
2021/03/20 11:53:15;;;;;;;3.60;2.00;;;;;;;5.45;44.36;102699.28;5038784;28;20029;-70
2021/03/20 11:55:42;;;;;;;8.13;2.95;;;;;;;5.55;44.11;102689.91;5040673;28;20052;-70
2021/03/20 11:58:30;;;;;;;6.38;2.30;;;;;;;4.98;45.63;102690.13;5042022;28;20083;-70
2021/03/20 12:00:59;;;;;;;7.80;2.35;;;;;;;5.77;44.00;102680.56;5048698;28;20044;-70
2021/03/20 12:03:32;;;;;;;7.10;2.30;;;;;;;5.64;44.58;102675.28;5040874;28;20043;-70
2021/03/20 12:06:26;;;;;;;3.75;2.85;;;;;;;6.37;43.60;102678.47;5046251;28;20028;-69
2021/03/20 12:09:05;;;;;;;6.80;1.95;;;;;;;5.63;44.27;102665.75;5040029;28;20400;-69